^^
Datos históricos de la estación: Murcia-Puente Tocinos
Diario Informe para Septiembre 4, 2019 Unidades:  Ingés    Métrico   Ambas
Diario Semanal Mensual Anual
  Máxima: Mínima: Promedio:
Temperatura: 93.7 °F 74.3 °F 82.9 °F
Punto de rocio: 71.4 °F 67.1 °F 69.4 °F
Humedad: 85% 42.9% 66%
Velocidad viento: 10.7mph 0mph 5.2mph
Racha viento: 21mph - -
Viento- - ESE
Presión: 29.9 in 29.8 in -
Precipitación: 0 in    
 
 
Tabla de datos para Septiembre 4, 2019
Hora Temperatura Punto de rocio Presión Viento Velocidad viento Racha viento Humedad Intensidad lluvia(por hora) Nubes
00:04 77.7 °F 68.7 °F 29.9 in NE 3.6 mph 6 mph 73.7% 0 in
00:09 77.7 °F 68.4 °F 29.9 in ENE 3.4 mph 7.4 mph 72.8% 0 in
00:14 77.7 °F 68 °F 29.9 in ENE 3.1 mph 7 mph 72% 0 in
00:19 77.7 °F 68 °F 29.9 in ENE 3.1 mph 6 mph 72% 0 in
00:24 77.7 °F 68.2 °F 29.9 in NE 3.1 mph 7.4 mph 72.5% 0 in
00:29 77.5 °F 68.4 °F 29.9 in NE 3.7 mph 7.4 mph 73.5% 0 in
00:34 77.5 °F 68.5 °F 29.9 in NE 4.7 mph 8.1 mph 74% 0 in
00:39 77.4 °F 68.5 °F 29.9 in ENE 4.7 mph 9.2 mph 74.5% 0 in
00:44 77.4 °F 68.7 °F 29.9 in NE 4.7 mph 9 mph 75% 0 in
00:49 77.4 °F 68.9 °F 29.9 in ENE 4.7 mph 9 mph 75.3% 0 in
00:54 77.2 °F 69.1 °F 29.9 in NE 4.7 mph 7 mph 76% 0 in
00:59 77.2 °F 69.1 °F 29.9 in NE 4.4 mph 7 mph 76% 0 in
01:04 77.2 °F 69.3 °F 29.9 in NE 4 mph 6.4 mph 76.9% 0 in
01:09 77 °F 69.1 °F 29.9 in NE 4 mph 7 mph 76.6% 0 in
01:14 76.6 °F 69.1 °F 29.9 in NE 4 mph 7 mph 77% 0 in
01:19 76.6 °F 69.1 °F 29.9 in NE 4 mph 6.9 mph 77.3% 0 in
01:24 76.5 °F 69.1 °F 29.9 in NE 4 mph 7.6 mph 78.1% 0 in
01:29 76.3 °F 69.3 °F 29.9 in NE 4.2 mph 8.1 mph 79% 0 in
01:34 76.3 °F 69.4 °F 29.9 in NE 4.7 mph 7 mph 79.6% 0 in
01:39 76.1 °F 69.4 °F 29.9 in NE 4.3 mph 6 mph 80% 0 in
01:44 75.9 °F 69.4 °F 29.9 in NE 3.6 mph 6 mph 80.1% 0 in
01:49 75.9 °F 69.6 °F 29.9 in NE 3.9 mph 6.9 mph 81% 0 in
01:54 75.9 °F 69.6 °F 29.9 in NE 4.3 mph 7 mph 81% 0 in
01:59 75.7 °F 69.4 °F 29.9 in NE 4.3 mph 7 mph 81% 0 in
02:04 75.7 °F 69.8 °F 29.9 in NNE 4.3 mph 6 mph 81.8% 0 in
02:09 75.7 °F 69.8 °F 29.9 in NNE 3.9 mph 5.2 mph 82% 0 in
02:14 75.6 °F 69.6 °F 29.9 in NE 3.1 mph 5 mph 82% 0 in
02:19 75.6 °F 69.6 °F 29.9 in NNE 2.7 mph 4.7 mph 82% 0 in
02:24 75.6 °F 70 °F 29.9 in NE 2 mph 5.2 mph 82.7% 0 in
02:29 75.6 °F 70 °F 29.9 in NNE 2.2 mph 5 mph 83% 0 in
02:34 75.6 °F 70 °F 29.9 in NE 3.1 mph 5 mph 83% 0 in
02:39 75.6 °F 70 °F 29.9 in NE 2.9 mph 5.2 mph 83% 0 in
02:44 75.6 °F 70 °F 29.9 in NE 2.4 mph 6.2 mph 83% 0 in
02:49 75.4 °F 70 °F 29.9 in NE 2.8 mph 6 mph 83% 0 in
02:54 75.4 °F 70 °F 29.9 in NE 3.6 mph 5 mph 83% 0 in
02:59 75.4 °F 70 °F 29.9 in NE 3.2 mph 5 mph 83% 0 in
03:04 75.4 °F 70 °F 29.9 in NE 2.4 mph 4 mph 83% 0 in
03:09 75.4 °F 70 °F 29.9 in NNE 2.3 mph 5 mph 83% 0 in
03:14 75.4 °F 70 °F 29.9 in NNE 1.8 mph 3 mph 83% 0 in
03:19 75.4 °F 70 °F 29.9 in North 1.2 mph 2 mph 83% 0 in
03:24 75.4 °F 70 °F 29.9 in Calm   3.1 mph 83.1% 0 in
03:29 75.4 °F 70 °F 29.9 in NO 0.5 mph 3.5 mph 83.4% 0 in
03:34 75.4 °F 70.2 °F 29.9 in NO 1.4 mph 4.6 mph 84% 0 in
03:39 75.4 °F 70.2 °F 29.9 in NO 1.4 mph 5 mph 84% 0 in
03:44 75.4 °F 70.2 °F 29.9 in ONO 1.4 mph 3 mph 83.7% 0 in
03:49 75.4 °F 70.2 °F 29.9 in ONO 1.6 mph 3.5 mph 83.9% 0 in
03:54 75.2 °F 69.8 °F 29.9 in ONO 1.8 mph 3 mph 83.2% 0 in
03:59 75.2 °F 69.8 °F 29.9 in ONO 1.6 mph 3.6 mph 83.4% 0 in
04:04 75 °F 70 °F 29.9 in ONO 1.4 mph 4 mph 84% 0 in
04:09 75 °F 70 °F 29.9 in ONO 1 mph   84% 0 in
04:14 75 °F 70 °F 29.9 in Calm   4.7 mph 84% 0 in
04:19 75 °F 70 °F 29.9 in ONO 0.7 mph 5 mph 84% 0 in
04:24 75 °F 69.8 °F 29.9 in ONO 2 mph 5 mph 84% 0 in
04:29 74.8 °F 69.6 °F 29.9 in ONO 1.9 mph 5 mph 84% 0 in
04:34 74.8 °F 69.8 °F 29.9 in ONO 1.8 mph 4 mph 84.3% 0 in
04:39 74.8 °F 70 °F 29.9 in Oeste 1.8 mph 5.2 mph 85% 0 in
04:44 74.8 °F 70 °F 29.9 in Oeste 1.8 mph 5 mph 85% 0 in
04:49 74.8 °F 70 °F 29.9 in Oeste 1.7 mph 4.7 mph 85% 0 in
04:54 74.8 °F 70 °F 29.9 in OSO 1.4 mph 5 mph 85% 0 in
04:59 74.8 °F 70 °F 29.9 in Oeste 1.7 mph 5 mph 85% 0 in
05:04 75 °F 70.2 °F 29.9 in Oeste 2.4 mph 5 mph 85% 0 in
05:09 75 °F 70.2 °F 29.9 in Oeste 2.2 mph 5 mph 85% 0 in
05:14 75 °F 70.2 °F 29.9 in ONO 2 mph 3.5 mph 85% 0 in
05:19 75 °F 70.2 °F 29.9 in OSO 1.8 mph 4.6 mph 85% 0 in
05:24 75 °F 70.2 °F 29.9 in OSO 1.4 mph 5 mph 85% 0 in
05:29 75 °F 70.2 °F 29.9 in SSO 1.9 mph 5.8 mph 84.6% 0 in
05:34 75 °F 69.6 °F 29.9 in SSO 3.1 mph 8.1 mph 83.2% 0 in
05:39 75 °F 69.1 °F 29.9 in Sur 3.7 mph 8 mph 82% 0 in
05:44 75 °F 69.1 °F 29.9 in SSO 4.7 mph 7 mph 82% 0 in
05:49 75 °F 69.1 °F 29.9 in SO 4.7 mph 7.4 mph 82% 0 in
05:54 75 °F 69.1 °F 29.9 in SO 4.7 mph 7 mph 82% 0 in
05:59 74.8 °F 69.1 °F 29.9 in SO 4.4 mph 7 mph 82% 0 in
06:04 74.8 °F 69.1 °F 29.9 in SO 4 mph 7 mph 82% 0 in
06:09 74.8 °F 69.1 °F 29.9 in SO 4 mph 7.4 mph 82% 0 in
06:14 74.8 °F 69.1 °F 29.9 in SO 4 mph 7 mph 82% 0 in
06:19 74.8 °F 69.1 °F 29.9 in SO 4.1 mph 7.4 mph 82% 0 in
06:24 74.7 °F 68.7 °F 29.9 in SSO 4.3 mph 9.7 mph 81.8% 0 in
06:29 74.7 °F 68.7 °F 29.9 in SSO 4.6 mph 10 mph 82% 0 in
06:34 74.7 °F 68.7 °F 29.9 in SSO 5.2 mph 8 mph 82% 0 in
06:39 74.7 °F 68.7 °F 29.9 in SSO 5.2 mph 8.1 mph 82% 0 in
06:44 74.7 °F 68.7 °F 29.9 in SSO 5.2 mph 8 mph 82% 0 in
06:49 74.7 °F 68.7 °F 29.9 in OSO 4.9 mph 7 mph 82% 0 in
06:54 74.7 °F 68.7 °F 29.9 in OSO 4.3 mph 5.8 mph 82% 0 in
06:59 74.7 °F 68.7 °F 29.9 in Sur 3.8 mph 6 mph 82% 0 in
07:04 74.7 °F 68.7 °F 29.9 in Sur 2.9 mph 6 mph 82% 0 in
07:09 74.7 °F 68.7 °F 29.9 in Oeste 2.7 mph 5 mph 82% 0 in
07:14 74.8 °F 68.9 °F 29.9 in Sur 2.4 mph 5.2 mph 82% 0 in
07:19 74.8 °F 69.1 °F 29.9 in Oeste 2.4 mph 5 mph 82% 0 in
07:24 74.8 °F 69.1 °F 29.9 in ONO 2.4 mph 5 mph 82% 0 in
07:29 74.8 °F 68.9 °F 29.9 in NO 2.1 mph 4.6 mph 81.9% 0 in
07:34 74.7 °F 68.7 °F 29.9 in NO 1.4 mph 5 mph 81.9% 0 in
07:39 74.7 °F 68.7 °F 29.9 in NO 1.4 mph 5 mph 82% 0 in
07:44 74.5 °F 68.5 °F 29.9 in NO 1.4 mph 6.4 mph 82% 0 in
07:49 74.5 °F 68.5 °F 29.9 in SE 1.6 mph 7.4 mph 82% 0 in
07:54 74.5 °F 68.5 °F 29.9 in SE 2 mph 7.4 mph 82% 0 in
07:59 74.3 °F 68.4 °F 29.9 in SE 2.8 mph 7 mph 82% 0 in
08:04 74.5 °F 68.5 °F 29.9 in SSE 4 mph 6 mph 82% 0 in
08:09 74.7 °F 68.7 °F 29.9 in SSE 3.3 mph 5 mph 82% 0 in
08:14 74.8 °F 68.9 °F 29.9 in SSE 2 mph 4 mph 82% 0 in
08:19 75 °F 69.1 °F 29.9 in SSO 2 mph 5 mph 81.8% 0 in
08:24 75.4 °F 69.1 °F 29.9 in SSE 2 mph 6.9 mph 81% 0 in
08:29 75.6 °F 69.1 °F 29.9 in SSE 2.5 mph 7 mph 80.5% 0 in
08:34 75.7 °F 69.4 °F 29.9 in SSE 3.6 mph 7 mph 80.8% 0 in
08:39 76.1 °F 69.4 °F 29.9 in SE 3.7 mph 8.5 mph 80.1% 0 in
08:44 76.3 °F 69.6 °F 29.9 in SSE 4 mph 9.2 mph 79.8% 0 in
08:49 76.5 °F 69.4 °F 29.9 in SSE 4.8 mph 9 mph 79.3% 0 in
08:54 76.6 °F 69.1 °F 29.9 in SSE 6.2 mph 8.1 mph 77.6% 0 in
08:59 77.2 °F 69.1 °F 29.9 in SSE 5.7 mph 8 mph 76.2% 0 in
09:04 77.5 °F 68.9 °F 29.9 in SE 4.7 mph 6 mph 75.1% 0 in
09:09 77.9 °F 68.5 °F 29.9 in SSE 4.3 mph 6 mph 73.2% 0 in
09:14 78.3 °F 68.2 °F 29.9 in SSE 3.6 mph 6 mph 71.2% 0 in
09:19 78.8 °F 68.2 °F 29.9 in Sur 3 mph 4.7 mph 69.8% 0 in
09:24 79.3 °F 68 °F 29.9 in Oeste 1.8 mph 5.2 mph 68.4% 0 in
09:29 79.7 °F 68 °F 29.9 in ONO 1.9 mph 5 mph 67.6% 0 in
09:34 80.2 °F 68 °F 29.9 in NO 2 mph 3.6 mph 66.2% 0 in
09:39 81 °F 68.4 °F 29.9 in NO 1.6 mph 5.4 mph 65.6% 0 in
09:44 81.1 °F 67.8 °F 29.9 in Calm   6.2 mph 64% 0 in
09:49 81 °F 67.6 °F 29.9 in SO 0.7 mph 6 mph 64.1% 0 in
09:54 81.1 °F 67.8 °F 29.9 in ESE 3.1 mph 5 mph 64.2% 0 in
09:59 81.9 °F 68.2 °F 29.9 in NE 2.8 mph 5 mph 63.4% 0 in
10:04 82.6 °F 68.4 °F 29.9 in ENE 1.8 mph 5.4 mph 62.1% 0 in
10:09 82.8 °F 68.2 °F 29.9 in ENE 2 mph 6 mph 61.7% 0 in
10:14 82.8 °F 68.2 °F 29.9 in NE 2.4 mph 5 mph 61.8% 0 in
10:19 82.8 °F 68 °F 29.9 in North 2.4 mph 5.8 mph 61.1% 0 in
10:24 82.9 °F 68.2 °F 29.9 in NNO 2.4 mph 6 mph 61.1% 0 in
10:29 82.9 °F 68.2 °F 29.9 in North 2.5 mph 6.4 mph 61% 0 in
10:34 82.9 °F 68 °F 29.9 in NE 2.9 mph 7 mph 60.9% 0 in
10:39 82.9 °F 68.2 °F 29.9 in NE 3 mph 7 mph 61% 0 in
10:44 83.3 °F 68.4 °F 29.9 in ENE 3.1 mph 6 mph 60.6% 0 in
10:49 83.8 °F 68.4 °F 29.9 in NNO 2.7 mph 5.9 mph 60% 0 in
10:54 84 °F 68.4 °F 29.9 in NNO 2 mph 6 mph 59.4% 0 in
10:59 84 °F 68.4 °F 29.9 in NO 2.4 mph 5.8 mph 59.7% 0 in
11:04 84 °F 68.7 °F 29.9 in NNE 2.9 mph 6 mph 60.1% 0 in
11:09 84.6 °F 68.9 °F 29.9 in North 2.5 mph 5.4 mph 59.7% 0 in
11:14 84.7 °F 68.7 °F 29.9 in NNO 2 mph 6 mph 59% 0 in
11:19 84.9 °F 68.9 °F 29.9 in NNE 2.5 mph 7.4 mph 59% 0 in
11:24 84.9 °F 68.9 °F 29.9 in North 3.6 mph 7 mph 59% 0 in
11:29 85.1 °F 69.1 °F 29.9 in ONO 3.2 mph 6 mph 58.6% 0 in
11:34 85.5 °F 68.9 °F 29.9 in NNO 2.4 mph 7.4 mph 58% 0 in
11:39 85.6 °F 69.1 °F 29.9 in NE 2.5 mph 7 mph 57.8% 0 in
11:44 86 °F 68.9 °F 29.9 in ENE 2.9 mph 6.2 mph 57% 0 in
11:49 86.4 °F 69.3 °F 29.9 in ENE 2.5 mph 8.1 mph 57% 0 in
11:54 86.5 °F 69.4 °F 29.9 in NE 2 mph 9.7 mph 56.7% 0 in
11:59 86.4 °F 69.1 °F 29.9 in NE 3.5 mph 12.7 mph 56.7% 0 in
12:04 86 °F 68.9 °F 29.9 in NNO 5.9 mph 13 mph 56.8% 0 in
12:09 86.2 °F 69.1 °F 29.9 in NNO 5 mph 8.5 mph 56.8% 0 in
12:14 86.5 °F 68.9 °F 29.9 in ENE 3.6 mph 12.7 mph 56% 0 in
12:19 86.7 °F 68.7 °F 29.9 in NNE 4.2 mph 13 mph 55.2% 0 in
12:24 87.3 °F 69.3 °F 29.9 in NNE 5.4 mph 9.7 mph 55.4% 0 in
12:29 87.4 °F 69.4 °F 29.9 in Este 4.9 mph 10.4 mph 55% 0 in
12:34 87.4 °F 69.3 °F 29.9 in NNE 4 mph 10 mph 55% 0 in
12:39 87.4 °F 69.3 °F 29.9 in NE 4.7 mph 10.4 mph 55.1% 0 in
12:44 87.4 °F 69.3 °F 29.9 in NE 5.9 mph 10 mph 54.9% 0 in
12:49 87.8 °F 69.1 °F 29.9 in ENE 5.7 mph 10 mph 54% 0 in
12:54 88.2 °F 69.3 °F 29.9 in NE 5.4 mph 10.7 mph 53.9% 0 in
12:59 88.2 °F 69.3 °F 29.9 in NE 5.6 mph 11 mph 53.6% 0 in
13:04 88.5 °F 69.3 °F 29.9 in NNE 5.9 mph 10 mph 53.2% 0 in
13:09 88.9 °F 69.3 °F 29.9 in NE 5.2 mph 10 mph 52.6% 0 in
13:14 88.7 °F 69.4 °F 29.9 in NE 4 mph 13 mph 53% 0 in
13:19 88.9 °F 69.4 °F 29.9 in NE 5.1 mph 15.2 mph 52.7% 0 in
13:24 89.1 °F 69.3 °F 29.9 in ENE 6.9 mph 15 mph 52.1% 0 in
13:29 89.1 °F 69.1 °F 29.9 in NE 6.7 mph 12.7 mph 52% 0 in
13:34 89.1 °F 69.3 °F 29.9 in NE 6.4 mph 13.8 mph 52% 0 in
13:39 89.1 °F 69.1 °F 29.9 in NNE 6.3 mph 14 mph 52% 0 in
13:44 89.1 °F 69.1 °F 29.9 in North 6.2 mph 10 mph 52% 0 in
13:49 89.4 °F 69.6 °F 29.9 in North 5.7 mph 9.2 mph 52% 0 in
13:54 90 °F 69.6 °F 29.9 in NE 4.7 mph 13.5 mph 51.2% 0 in
13:59 90.1 °F 69.6 °F 29.9 in ENE 5 mph 14 mph 50.8% 0 in
14:04 90.1 °F 69.4 °F 29.9 in NE 5.4 mph 12 mph 50.8% 0 in
14:09 90.3 °F 69.6 °F 29.9 in NNE 5.4 mph 13.8 mph 51% 0 in
14:14 90.3 °F 70 °F 29.9 in NE 5.4 mph 14 mph 51.3% 0 in
14:19 90.7 °F 70.3 °F 29.9 in NNE 5.2 mph 9.7 mph 51.3% 0 in
14:24 91 °F 70.2 °F 29.9 in NNE 4.7 mph 16.1 mph 50.4% 0 in
14:29 91 °F 70.3 °F 29.9 in NNE 5.5 mph 16 mph 50.9% 0 in
14:34 91.2 °F 70 °F 29.9 in NE 6.9 mph 14.5 mph 50% 0 in
14:39 91 °F 69.8 °F 29.9 in NNE 7.3 mph 15 mph 50% 0 in
14:44 91.2 °F 70 °F 29.9 in NE 8.1 mph 15 mph 50% 0 in
14:49 91.4 °F 70.2 °F 29.9 in NNE 7.3 mph 14 mph 50% 0 in
14:54 91.6 °F 70.3 °F 29.9 in NNE 5.9 mph 12.3 mph 50.1% 0 in
14:59 91.6 °F 70.3 °F 29.9 in NNE 6.1 mph 13 mph 50.1% 0 in
15:04 91.8 °F 70.5 °F 29.9 in NE 6.4 mph 13.5 mph 50% 0 in
15:09 91.9 °F 70.7 °F 29.9 in NE 6.4 mph 14 mph 49.9% 0 in
15:14 92.1 °F 70.7 °F 29.9 in NNE 6.4 mph 14 mph 49.8% 0 in
15:19 92.1 °F 70.7 °F 29.9 in NNE 6.8 mph 13 mph 49.9% 0 in
15:24 92.1 °F 70.9 °F 29.9 in NE 7.4 mph 13.8 mph 50% 0 in
15:29 92.1 °F 70.9 °F 29.9 in NE 7.5 mph 15.9 mph 50% 0 in
15:34 91.9 °F 71.1 °F 29.9 in NE 7.6 mph 16.1 mph 50.8% 0 in
15:39 91.9 °F 71.2 °F 29.8 in NNE 8 mph 16 mph 51% 0 in
15:44 92.1 °F 71.2 °F 29.8 in NE 8.5 mph 15 mph 50.7% 0 in
15:49 92.7 °F 70.9 °F 29.8 in NE 8.1 mph 14 mph 49.4% 0 in
15:54 92.7 °F 71.4 °F 29.8 in NE 7.4 mph 18.4 mph 50.2% 0 in
15:59 92.7 °F 71.2 °F 29.8 in NE 8.3 mph 18.4 mph 50% 0 in
16:04 92.7 °F 71.2 °F 29.8 in NE 9.7 mph 17.5 mph 50% 0 in
16:09 92.7 °F 71.2 °F 29.8 in NNE 9.8 mph 19.7 mph 50% 0 in
16:14 92.7 °F 71.2 °F 29.8 in NE 10 mph 20 mph 50% 0 in
16:19 92.8 °F 71.2 °F 29.8 in NE 10.3 mph 16.1 mph 49.5% 0 in
16:24 93 °F 71.1 °F 29.8 in NE 10.7 mph 18.4 mph 49.2% 0 in
16:29 93 °F 71.1 °F 29.8 in NE 10.7 mph 18.5 mph 49% 0 in
16:34 93.6 °F 71.1 °F 29.8 in ESE 10.7 mph 19 mph 48.2% 0 in
16:39 93.7 °F 70.7 °F 29.8 in SE 9.9 mph 17.3 mph 47.3% 0 in
16:44 93.7 °F 70.7 °F 29.8 in ESE 8.7 mph 17 mph 47.6% 0 in
16:49 93.6 °F 70.9 °F 29.8 in SE 9.3 mph 17.3 mph 47.9% 0 in
16:54 93.4 °F 70.7 °F 29.8 in SE 10.2 mph 18.5 mph 47.8% 0 in
16:59 93.4 °F 70.7 °F 29.8 in SE 10.1 mph 19 mph 48% 0 in
17:04 93.4 °F 70.2 °F 29.8 in SE 10 mph 19 mph 47% 0 in
17:09 93.2 °F 70 °F 29.8 in SE 9.7 mph 19 mph 47% 0 in
17:14 93 °F 69.8 °F 29.8 in ESE 9.2 mph 16 mph 47% 0 in
17:19 93 °F 69.6 °F 29.8 in SE 9.2 mph 15 mph 46.8% 0 in
17:24 93 °F 69.3 °F 29.8 in SE 9.2 mph 17.5 mph 46% 0 in
17:29 93 °F 68.9 °F 29.8 in SE 9.4 mph 17 mph 45.6% 0 in
17:34 93.4 °F 68.5 °F 29.8 in ESE 9.7 mph 15 mph 44.7% 0 in
17:39 93.4 °F 68 °F 29.8 in SE 9.1 mph 15 mph 43.7% 0 in
17:44 93.6 °F 68 °F 29.8 in ESE 8.1 mph 15 mph 43.5% 0 in
17:49 93.4 °F 67.5 °F 29.8 in ESE 8.1 mph 15 mph 43% 0 in
17:54 93 °F 67.1 °F 29.8 in SE 8.1 mph 15 mph 42.9% 0 in
17:59 92.8 °F 67.1 °F 29.8 in SE 8.3 mph 15.2 mph 43% 0 in
18:04 92.8 °F 67.6 °F 29.8 in SE 8.7 mph 15.9 mph 44% 0 in
18:09 92.8 °F 67.6 °F 29.8 in SE 8.9 mph 16.8 mph 43.9% 0 in
18:14 92.8 °F 67.8 °F 29.8 in SE 9.2 mph 17 mph 44% 0 in
18:19 92.8 °F 67.8 °F 29.8 in SE 8.9 mph 13.8 mph 44.2% 0 in
18:24 92.7 °F 68.2 °F 29.8 in SE 8.5 mph 15.9 mph 45% 0 in
18:29 92.1 °F 68.4 °F 29.8 in SE 8.8 mph 16.1 mph 46% 0 in
18:34 92.1 °F 68.5 °F 29.8 in SE 9.2 mph 15 mph 46% 0 in
18:39 91.9 °F 68.7 °F 29.8 in SE 8.9 mph 15 mph 46.9% 0 in
18:44 91.9 °F 68.7 °F 29.8 in SE 8.5 mph 15 mph 47% 0 in
18:49 91.9 °F 68.7 °F 29.8 in SE 8.6 mph 15 mph 47% 0 in
18:54 91.9 °F 69.1 °F 29.8 in ESE 8.7 mph 14 mph 47.3% 0 in
18:59 91.9 °F 69.6 °F 29.8 in SE 8.4 mph 13.8 mph 48.4% 0 in
19:04 91.9 °F 69.6 °F 29.8 in SE 8.1 mph 14 mph 48.4% 0 in
19:09 91.9 °F 69.6 °F 29.8 in SE 8.1 mph 14 mph 48.6% 0 in
19:14 91.8 °F 69.6 °F 29.8 in ESE 8.1 mph 14 mph 48.5% 0 in
19:19 91.8 °F 69.4 °F 29.8 in ESE 7.8 mph 13.8 mph 48.4% 0 in
19:24 91.6 °F 69.6 °F 29.8 in SE 7.4 mph 14 mph 48.8% 0 in
19:29 91.4 °F 69.6 °F 29.8 in ESE 7.4 mph 14 mph 49% 0 in
19:34 91.2 °F 69.6 °F 29.8 in ESE 7.4 mph 12.7 mph 49.4% 0 in
19:39 91 °F 69.8 °F 29.8 in SE 7.5 mph 13 mph 50% 0 in
19:44 90.9 °F 70.2 °F 29.8 in ESE 7.6 mph 13.8 mph 51% 0 in
19:49 90.5 °F 70.3 °F 29.8 in ESE 7.8 mph 14 mph 51.8% 0 in
19:54 90.3 °F 70.3 °F 29.8 in ESE 8.1 mph 15 mph 52% 0 in
19:59 90 °F 70.5 °F 29.8 in ESE 8.3 mph 15 mph 52.9% 0 in
20:04 89.8 °F 70.7 °F 29.8 in ESE 8.7 mph 15.2 mph 53.7% 0 in
20:09 89.4 °F 70.7 °F 29.8 in ESE 8.7 mph 15 mph 54% 0 in
20:14 89.2 °F 70.9 °F 29.8 in ESE 8.7 mph 14 mph 54.8% 0 in
20:19 89.1 °F 70.9 °F 29.8 in ESE 8.7 mph 14 mph 55.1% 0 in
20:24 88.7 °F 71.1 °F 29.8 in ESE 8.7 mph 14 mph 56% 0 in
20:29 88.3 °F 71.1 °F 29.8 in ESE 8.9 mph 14 mph 56.6% 0 in
20:34 88.3 °F 71.1 °F 29.8 in ESE 9.2 mph 14 mph 57% 0 in
20:39 88.2 °F 70.9 °F 29.8 in ESE 8.9 mph 13 mph 57% 0 in
20:44 88 °F 71.2 °F 29.8 in ESE 8.5 mph 13 mph 57.9% 0 in
20:49 87.8 °F 71.1 °F 29.8 in ESE 8.1 mph 13 mph 58% 0 in
20:54 87.4 °F 71.1 °F 29.8 in ESE 7.4 mph 12 mph 58.5% 0 in
20:59 87.3 °F 71.1 °F 29.8 in ESE 7.4 mph 14 mph 59% 0 in
21:04 86.9 °F 71.2 °F 29.8 in ESE 7.4 mph 14 mph 59.9% 0 in
21:09 86.7 °F 71.1 °F 29.8 in ESE 7 mph 10.7 mph 60% 0 in
21:14 86.5 °F 71.1 °F 29.8 in ENE 6.4 mph 11 mph 60.3% 0 in
21:19 86.4 °F 71.2 °F 29.8 in NE 5.5 mph 6.9 mph 61% 0 in
21:24 86 °F 71.1 °F 29.8 in NNE 3.6 mph 11.8 mph 61.1% 0 in
21:29 85.3 °F 70.7 °F 29.8 in NNE 4.7 mph 12 mph 62% 0 in
21:34 84.4 °F 70.3 °F 29.9 in NE 6.9 mph 13 mph 62.8% 0 in
21:39 83.8 °F 70.5 °F 29.9 in NE 7.5 mph 13.8 mph 64.2% 0 in
21:44 83.7 °F 70.5 °F 29.9 in NE 8.5 mph 14 mph 65% 0 in
21:49 83.1 °F 70.5 °F 29.9 in NE 8.2 mph 14 mph 65.9% 0 in
21:54 82.8 °F 70.7 °F 29.9 in NE 7.6 mph 14.7 mph 66.8% 0 in
21:59 82.4 °F 70.5 °F 29.9 in NE 8.3 mph 15 mph 67.5% 0 in
22:04 82.2 °F 70.5 °F 29.9 in NE 9.2 mph 14 mph 68% 0 in
22:09 82 °F 70.3 °F 29.9 in NE 8.9 mph 14 mph 68% 0 in
22:14 81.9 °F 70.3 °F 29.9 in NE 8.1 mph 20.8 mph 68% 0 in
22:19 81.9 °F 70.2 °F 29.9 in NE 8.3 mph 21 mph 68% 0 in
22:24 81.5 °F 70 °F 29.9 in NE 8.7 mph 15 mph 68% 0 in
22:29 81.3 °F 69.4 °F 29.9 in NE 8.7 mph 15 mph 67.4% 0 in
22:34 81.3 °F 68.7 °F 29.9 in NE 8.7 mph 15 mph 65.7% 0 in
22:39 81.3 °F 68.9 °F 29.9 in NE 9.2 mph 16.3 mph 65.9% 0 in
22:44 81.3 °F 68.9 °F 29.9 in NE 10 mph 16 mph 66% 0 in
22:49 81.1 °F 68.7 °F 29.9 in NE 9.3 mph 13 mph 66% 0 in
22:54 81.1 °F 68.9 °F 29.9 in NE 8.1 mph 13 mph 66.7% 0 in
22:59 81 °F 69.1 °F 29.9 in NE 7.9 mph 13 mph 67% 0 in
23:04 81 °F 68.9 °F 29.9 in NE 7.6 mph 12 mph 67% 0 in
23:09 80.8 °F 68.9 °F 29.9 in NE 7.3 mph 13 mph 67.3% 0 in
23:14 80.8 °F 69.3 °F 29.9 in NE 6.9 mph 13 mph 68% 0 in
23:19 80.4 °F 68.9 °F 29.9 in NNE 7.1 mph 13 mph 68% 0 in
23:24 80.4 °F 69.3 °F 29.9 in NE 7.6 mph 12 mph 68.9% 0 in
23:29 80.4 °F 69.3 °F 29.9 in NE 7.3 mph 12 mph 69% 0 in
23:34 80.4 °F 69.4 °F 29.9 in NE 6.9 mph 9 mph 69.4% 0 in
23:39 80.2 °F 69.6 °F 29.9 in NE 6.5 mph 9 mph 70% 0 in
23:44 80.1 °F 69.8 °F 29.9 in NE 5.9 mph 9 mph 70.9% 0 in
23:49 80.1 °F 70.2 °F 29.9 in NNE 5.7 mph 9.7 mph 72% 0 in
23:54 79.9 °F 70.3 °F 29.9 in NE 5.4 mph 10 mph 73% 0 in
23:59 79.5 °F 70.5 °F 29.9 in NNE 5.6 mph 9.2 mph 73.8% 0 in
Murcia-Puente Tocinos, Espa?a
Compliments of Weather Underground - 3.25 mb

La estación de MeteoMurcia.com, publica sus datos en los siguientes proyectos:

Weather Underground PWS IMURCIAP2 Meteoclimatic www.awekas.at

Web Analytics

Clicky